Time;durP1;ratioP1;P1;durP2;ratioP2;P2;SDS_P1;SDS_P2;PMS_P1;PMS_P2;Temp;Humidity;BMP_temperature;BMP_pressure;BME280_temperature;BME280_humidity;BME280_pressure;Samples;Min_cycle;Max_cycle;Signal;HPM_P1;HPM_P2
2022/05/18 00:01:51;;;;;;;10.93;5.47;;;21.50;99.90;;;;;;4184297;28;20646;-94
2022/05/18 00:03:52;;;;;;;10.20;5.47;;;21.30;99.90;;;;;;4183677;28;20297;-94
2022/05/18 00:05:53;;;;;;;12.57;5.15;;;21.20;99.90;;;;;;4166927;28;20175;-95
2022/05/18 00:07:54;;;;;;;14.77;5.03;;;21.00;99.90;;;;;;4166902;28;20165;-94
2022/05/18 00:09:57;;;;;;;12.23;5.20;;;20.90;99.90;;;;;;4167015;28;20218;-95
2022/05/18 00:11:58;;;;;;;11.70;4.57;;;20.80;99.90;;;;;;4166694;28;20244;-94
2022/05/18 00:13:59;;;;;;;11.52;4.53;;;20.90;99.90;;;;;;4183459;28;20270;-94
2022/05/18 00:16:00;;;;;;;8.05;4.13;;;21.00;99.90;;;;;;4167027;28;20216;-93
2022/05/18 00:18:01;;;;;;;10.32;3.80;;;20.90;99.90;;;;;;4183527;28;20179;-95
2022/05/18 00:20:02;;;;;;;6.78;3.58;;;20.90;99.90;;;;;;4166888;28;20263;-94
2022/05/18 00:22:04;;;;;;;8.85;3.33;;;20.90;99.90;;;;;;4167045;28;20164;-93
2022/05/18 00:24:05;;;;;;;9.10;3.45;;;21.00;99.90;;;;;;4183117;28;20679;-95
2022/05/18 00:26:06;;;;;;;12.63;3.40;;;20.90;99.90;;;;;;4166685;28;20189;-93
2022/05/18 00:28:08;;;;;;;6.47;2.80;;;21.00;99.90;;;;;;4166487;28;20219;-93
2022/05/18 00:30:11;;;;;;;5.20;2.63;;;21.20;99.90;;;;;;4166828;28;20176;-95
2022/05/18 00:32:12;;;;;;;12.45;2.95;;;21.10;99.90;;;;;;4166593;28;20172;-94
2022/05/18 00:34:14;;;;;;;8.32;2.50;;;20.90;99.90;;;;;;4183638;28;20225;-95
2022/05/18 00:36:15;;;;;;;6.40;2.60;;;20.90;99.90;;;;;;4167214;28;20240;-94
2022/05/18 00:38:16;;;;;;;4.93;1.95;;;21.00;99.90;;;;;;4182713;28;20175;-96
2022/05/18 00:40:19;;;;;;;4.10;2.38;;;21.10;99.90;;;;;;4166537;28;20352;-95
2022/05/18 00:42:22;;;;;;;5.85;1.58;;;21.20;99.90;;;;;;4182739;28;20175;-94
2022/05/18 00:44:23;;;;;;;5.88;2.05;;;21.10;99.90;;;;;;4182969;28;20554;-95
2022/05/18 00:46:24;;;;;;;4.72;2.00;;;21.20;99.90;;;;;;4182740;28;20188;-93
2022/05/18 00:48:28;;;;;;;4.53;2.10;;;21.20;99.90;;;;;;4166835;28;20223;-94
2022/05/18 00:50:33;;;;;;;7.97;2.03;;;20.90;99.90;;;;;;4166506;28;20231;-94
2022/05/18 00:52:52;;;;;;;4.57;1.92;;;20.80;99.90;;;;;;4166271;28;20175;-94
2022/05/18 00:54:55;;;;;;;5.50;1.70;;;20.70;99.90;;;;;;4182698;28;20171;-95
2022/05/18 00:57:03;;;;;;;9.23;2.00;;;20.70;99.90;;;;;;4166271;28;20378;-93
2022/05/18 01:01:54;;;;;;;11.25;2.10;;;20.90;99.90;;;;;;4197739;28;20731;-91
2022/05/18 01:03:56;;;;;;;6.00;1.90;;;21.00;99.90;;;;;;4201311;28;20270;-94
2022/05/18 01:06:09;;;;;;;2.97;1.50;;;20.90;99.90;;;;;;4201345;28;20258;-96
2022/05/18 01:08:15;;;;;;;9.98;1.75;;;20.90;99.90;;;;;;4182666;28;20168;-95
2022/05/18 01:10:16;;;;;;;6.82;1.98;;;21.00;99.90;;;;;;4182442;28;20183;-96
2022/05/18 01:12:20;;;;;;;3.00;1.50;;;21.00;99.90;;;;;;4182644;28;20176;-94
2022/05/18 01:14:28;;;;;;;5.60;1.55;;;21.10;99.90;;;;;;4182515;28;20171;-94
2022/05/18 01:16:29;;;;;;;10.93;1.83;;;21.20;99.90;;;;;;4183023;28;20736;-96
2022/05/18 01:18:30;;;;;;;8.20;2.10;;;21.30;99.90;;;;;;4182852;28;20670;-95
2022/05/18 01:20:37;;;;;;;7.45;1.88;;;21.30;99.90;;;;;;4183037;28;20182;-96
2022/05/18 01:22:49;;;;;;;6.38;1.80;;;21.30;99.90;;;;;;4183810;28;20172;-94
2022/05/18 01:25:05;;;;;;;6.28;1.80;;;21.20;99.90;;;;;;4183603;28;20214;-96
2022/05/18 01:27:09;;;;;;;10.32;1.45;;;21.20;99.90;;;;;;4183179;28;20199;-96
2022/05/18 01:29:11;;;;;;;5.50;1.60;;;21.20;99.90;;;;;;4184391;28;20163;-95
2022/05/18 01:31:12;;;;;;;7.18;1.85;;;21.30;99.90;;;;;;4170537;28;20180;-96
2022/05/18 01:33:17;;;;;;;9.95;1.55;;;21.30;99.90;;;;;;4170758;28;20164;-95
2022/05/18 01:35:22;;;;;;;6.20;1.80;;;21.30;99.90;;;;;;4186205;28;20175;-96
2022/05/18 01:37:26;;;;;;;5.30;1.75;;;21.30;99.90;;;;;;4183488;28;20226;-95
2022/05/18 01:39:36;;;;;;;7.20;2.00;;;21.30;99.90;;;;;;4183028;28;20180;-96
2022/05/18 01:41:44;;;;;;;3.90;1.63;;;21.20;99.90;;;;;;4184569;28;20180;-96
2022/05/18 01:43:51;;;;;;;6.20;1.63;;;21.20;99.90;;;;;;4184747;28;20199;-94
2022/05/18 01:45:54;;;;;;;6.40;1.52;;;21.20;99.90;;;;;;4183531;28;20206;-96
2022/05/18 01:48:06;;;;;;;4.93;1.63;;;21.10;99.90;;;;;;4165598;28;20207;-94
2022/05/18 01:50:14;;;;;;;9.68;1.50;;;21.10;99.90;;;;;;4181976;28;20171;-95
2022/05/18 01:52:16;;;;;;;6.13;1.55;;;21.20;99.90;;;;;;4181968;28;20175;-94
2022/05/18 01:54:17;;;;;;;6.57;1.48;;;21.20;99.90;;;;;;4181911;28;20342;-94
2022/05/18 01:56:18;;;;;;;6.32;2.03;;;21.30;99.90;;;;;;4181686;28;20277;-96
2022/05/18 01:58:18;;;;;;;6.82;1.27;;;21.40;99.90;;;;;;4165574;28;20168;-94
2022/05/18 02:00:19;;;;;;;7.75;1.80;;;21.40;99.90;;;;;;4181357;28;20187;-96
2022/05/18 02:02:22;;;;;;;4.07;1.27;;;21.30;99.90;;;;;;4165154;28;20168;-96
2022/05/18 02:04:23;;;;;;;4.22;1.65;;;21.30;99.90;;;;;;4165910;28;20298;-96
2022/05/18 02:06:24;;;;;;;6.28;1.52;;;21.40;99.90;;;;;;4182818;28;20194;-94
2022/05/18 02:08:25;;;;;;;4.25;1.42;;;21.40;99.90;;;;;;4165984;28;20202;-95
2022/05/18 02:10:26;;;;;;;9.68;1.70;;;21.40;99.90;;;;;;4181719;28;20167;-96
2022/05/18 02:12:27;;;;;;;4.53;1.30;;;21.40;99.90;;;;;;4181485;28;20175;-96
2022/05/18 02:14:27;;;;;;;12.35;1.88;;;21.40;99.90;;;;;;4182264;28;20178;-95
2022/05/18 02:16:28;;;;;;;3.95;1.65;;;21.40;99.90;;;;;;4165558;28;20192;-95
2022/05/18 02:18:29;;;;;;;8.02;1.70;;;21.30;99.90;;;;;;4182547;28;20175;-95
2022/05/18 02:20:30;;;;;;;5.40;1.50;;;21.30;99.90;;;;;;4165692;28;20168;-96
2022/05/18 02:22:31;;;;;;;3.38;1.75;;;21.20;99.90;;;;;;4165309;28;20323;-96
2022/05/18 02:24:31;;;;;;;4.88;1.70;;;21.00;99.90;;;;;;4165155;28;20207;-96
2022/05/18 02:26:32;;;;;;;3.63;1.70;;;21.00;99.90;;;;;;4181356;28;20210;-96
2022/05/18 02:28:33;;;;;;;5.07;1.55;;;20.90;99.90;;;;;;4164998;28;20187;-96
2022/05/18 02:30:34;;;;;;;10.75;1.90;;;20.90;99.90;;;;;;4165593;28;20722;-95
2022/05/18 02:32:35;;;;;;;3.33;1.33;;;20.80;99.90;;;;;;4165310;28;20639;-95
2022/05/18 02:34:36;;;;;;;4.47;1.60;;;20.70;99.90;;;;;;4165743;28;21038;-95
2022/05/18 02:36:37;;;;;;;9.27;1.73;;;20.60;99.90;;;;;;4165407;28;20208;-95
2022/05/18 02:38:39;;;;;;;9.48;1.88;;;20.60;99.90;;;;;;4165450;28;20168;-95
2022/05/18 02:40:40;;;;;;;5.93;1.58;;;20.60;99.90;;;;;;4165025;28;20230;-95
2022/05/18 02:42:41;;;;;;;5.72;1.50;;;20.50;99.90;;;;;;4181926;28;20152;-96
2022/05/18 02:44:41;;;;;;;6.38;1.80;;;20.60;99.90;;;;;;4165283;28;20788;-95
2022/05/18 02:46:42;;;;;;;4.28;1.52;;;20.60;99.90;;;;;;4181684;28;20187;-96
2022/05/18 02:48:43;;;;;;;7.90;1.70;;;20.70;99.90;;;;;;4165879;28;20175;-95
2022/05/18 02:50:47;;;;;;;10.57;1.67;;;20.70;99.90;;;;;;4182975;28;20206;-96
2022/05/18 02:52:47;;;;;;;5.93;1.90;;;20.80;99.90;;;;;;4167455;28;20184;-96
2022/05/18 02:57:09;;;;;;;7.55;1.60;;;20.80;99.90;;;;;;4197507;28;20191;-96
2022/05/18 02:59:09;;;;;;;5.80;1.42;;;20.80;99.90;;;;;;4181624;28;20175;-96
2022/05/18 03:01:13;;;;;;;9.18;1.63;;;20.80;99.90;;;;;;4180926;28;20183;-96
2022/05/18 03:03:14;;;;;;;6.88;1.52;;;20.90;99.90;;;;;;4180736;28;20229;-95
2022/05/18 03:05:15;;;;;;;3.70;1.50;;;20.90;99.90;;;;;;4181564;28;20179;-96
2022/05/18 03:07:16;;;;;;;6.20;1.77;;;20.90;99.90;;;;;;4164639;28;20204;-95
2022/05/18 03:09:18;;;;;;;4.43;1.60;;;20.90;99.90;;;;;;4183322;28;20175;-95
2022/05/18 03:11:19;;;;;;;6.65;1.67;;;20.90;99.90;;;;;;4182763;28;20168;-96
2022/05/18 03:13:20;;;;;;;6.25;1.85;;;20.90;99.90;;;;;;4182211;28;20254;-95
2022/05/18 03:15:21;;;;;;;4.95;1.63;;;21.00;99.90;;;;;;4181431;28;20172;-95
2022/05/18 03:17:22;;;;;;;6.20;1.65;;;20.90;99.90;;;;;;4182618;28;20195;-95
2022/05/18 03:19:23;;;;;;;6.53;1.50;;;21.00;99.90;;;;;;4183757;28;20167;-95
2022/05/18 03:23:43;;;;;;;8.95;1.77;;;21.00;99.90;;;;;;4201879;28;20281;-95
2022/05/18 03:25:44;;;;;;;5.75;1.65;;;20.90;99.90;;;;;;4168627;28;20595;-96
2022/05/18 03:27:45;;;;;;;7.68;1.80;;;21.00;99.90;;;;;;4185020;28;20160;-96
2022/05/18 03:29:46;;;;;;;7.28;1.40;;;20.90;99.90;;;;;;4184207;28;20172;-96
2022/05/18 03:31:48;;;;;;;11.48;1.60;;;20.90;99.90;;;;;;4168984;28;20168;-96
2022/05/18 03:33:49;;;;;;;4.95;1.17;;;21.00;99.90;;;;;;4167420;28;20255;-95
2022/05/18 03:35:51;;;;;;;10.15;1.77;;;21.00;99.90;;;;;;4184910;28;20181;-96
2022/05/18 03:37:52;;;;;;;4.07;1.60;;;20.90;99.90;;;;;;4184884;28;20180;-94
2022/05/18 03:39:52;;;;;;;5.82;1.83;;;20.90;99.90;;;;;;4169138;28;20635;-95
2022/05/18 03:41:56;;;;;;;6.78;1.80;;;20.90;99.90;;;;;;4184210;28;20213;-95
2022/05/18 03:43:56;;;;;;;8.68;1.67;;;20.80;99.90;;;;;;4201085;28;20199;-95
2022/05/18 03:46:01;;;;;;;3.75;1.52;;;20.80;99.90;;;;;;4168877;28;20172;-96
2022/05/18 03:48:02;;;;;;;14.10;1.88;;;20.80;99.90;;;;;;4168728;28;20164;-96
2022/05/18 03:50:03;;;;;;;12.25;1.70;;;20.80;99.90;;;;;;4169336;28;20194;-96
2022/05/18 03:52:04;;;;;;;7.70;1.55;;;20.80;99.90;;;;;;4167975;28;20204;-96
2022/05/18 03:54:06;;;;;;;4.30;1.52;;;20.80;99.90;;;;;;4167531;28;20175;-95
2022/05/18 03:56:08;;;;;;;5.47;1.70;;;20.90;99.90;;;;;;4167173;28;20668;-95
2022/05/18 03:58:09;;;;;;;10.98;1.85;;;21.00;99.90;;;;;;4167610;28;20228;-94
2022/05/18 04:00:10;;;;;;;7.82;1.80;;;20.90;99.90;;;;;;4168549;28;20715;-96
2022/05/18 04:02:11;;;;;;;6.05;1.85;;;20.80;99.90;;;;;;4168805;28;20180;-95
2022/05/18 04:04:12;;;;;;;9.93;1.67;;;20.90;99.90;;;;;;4167403;28;20200;-93
2022/05/18 04:06:14;;;;;;;4.20;1.75;;;20.80;99.90;;;;;;4166813;28;20193;-95
2022/05/18 04:08:15;;;;;;;4.05;1.50;;;20.80;99.90;;;;;;4183693;28;20562;-96
2022/05/18 04:10:17;;;;;;;7.18;2.00;;;20.90;99.90;;;;;;4168225;28;20187;-96
2022/05/18 04:12:17;;;;;;;5.70;1.52;;;20.80;99.90;;;;;;4183743;28;20210;-95
2022/05/18 04:14:18;;;;;;;4.78;1.60;;;20.80;99.90;;;;;;4183233;28;20175;-94
2022/05/18 04:16:19;;;;;;;5.18;1.58;;;20.80;99.90;;;;;;4183765;28;20195;-96
2022/05/18 04:18:20;;;;;;;6.38;1.35;;;20.80;99.90;;;;;;4167196;28;20199;-95
2022/05/18 04:20:23;;;;;;;6.32;1.60;;;20.80;99.90;;;;;;4167089;28;20205;-93
2022/05/18 04:22:23;;;;;;;8.27;1.35;;;20.70;99.90;;;;;;4167278;28;20207;-96
2022/05/18 04:24:24;;;;;;;8.27;1.50;;;20.80;99.90;;;;;;4166285;28;20219;-95
2022/05/18 04:26:25;;;;;;;6.15;1.58;;;20.80;99.90;;;;;;4184350;28;20195;-95
2022/05/18 04:28:26;;;;;;;12.00;1.80;;;20.80;99.90;;;;;;4167434;28;20258;-95
2022/05/18 04:30:27;;;;;;;3.50;1.48;;;20.90;99.90;;;;;;4183252;28;20171;-96
2022/05/18 04:32:28;;;;;;;9.57;1.40;;;20.90;99.90;;;;;;4183309;28;20705;-96
2022/05/18 04:34:29;;;;;;;3.33;1.60;;;20.90;99.90;;;;;;4182322;28;20254;-95
2022/05/18 04:36:30;;;;;;;4.75;1.95;;;20.90;99.90;;;;;;4183574;28;20237;-94
2022/05/18 04:38:32;;;;;;;4.57;1.55;;;20.90;99.90;;;;;;4167302;28;20164;-95
2022/05/18 04:40:33;;;;;;;6.40;1.65;;;20.90;99.90;;;;;;4167273;28;20203;-96
2022/05/18 04:42:34;;;;;;;9.05;2.08;;;20.90;99.90;;;;;;4167147;28;20172;-95
2022/05/18 04:44:35;;;;;;;7.38;1.70;;;21.00;99.90;;;;;;4167635;28;20216;-95
2022/05/18 04:46:36;;;;;;;3.15;1.30;;;21.00;99.90;;;;;;4182962;28;20507;-95
2022/05/18 04:48:37;;;;;;;10.68;2.00;;;21.10;99.90;;;;;;4183005;28;20634;-96
2022/05/18 04:50:37;;;;;;;4.10;1.52;;;21.00;99.90;;;;;;4167000;28;20244;-95
2022/05/18 04:52:39;;;;;;;8.40;1.90;;;20.90;99.90;;;;;;4199573;28;20216;-93
2022/05/18 04:54:40;;;;;;;4.82;1.40;;;20.90;99.90;;;;;;4166912;28;20619;-96
2022/05/18 04:56:40;;;;;;;4.63;1.90;;;20.90;99.90;;;;;;4183140;28;20191;-94
2022/05/18 04:58:41;;;;;;;7.15;1.75;;;20.90;99.90;;;;;;4182517;28;20176;-95
2022/05/18 05:00:44;;;;;;;7.85;1.70;;;20.90;99.90;;;;;;4166444;28;20188;-96
2022/05/18 05:02:45;;;;;;;4.50;1.90;;;20.90;99.90;;;;;;4166690;28;20624;-96
2022/05/18 05:04:46;;;;;;;4.57;1.90;;;20.90;99.90;;;;;;4165989;28;20214;-95
2022/05/18 05:06:46;;;;;;;8.75;2.03;;;20.90;99.90;;;;;;4165650;28;20188;-96
2022/05/18 05:08:47;;;;;;;6.32;1.70;;;20.90;99.90;;;;;;4181914;28;20171;-96
2022/05/18 05:10:48;;;;;;;9.30;1.88;;;20.90;99.90;;;;;;4165611;28;20172;-95
2022/05/18 05:12:49;;;;;;;10.80;2.00;;;20.90;99.90;;;;;;4181770;28;20627;-94
2022/05/18 05:14:50;;;;;;;3.88;1.92;;;20.90;99.90;;;;;;4165789;28;20172;-96
2022/05/18 05:16:50;;;;;;;3.60;1.55;;;20.90;99.90;;;;;;4165324;28;20192;-95
2022/05/18 05:18:51;;;;;;;5.43;1.95;;;21.00;99.90;;;;;;4181894;28;20179;-95
2022/05/18 05:20:52;;;;;;;7.85;1.90;;;21.00;99.90;;;;;;4181418;28;20183;-94
2022/05/18 05:22:52;;;;;;;6.75;2.13;;;21.00;99.90;;;;;;4165205;28;20674;-95
2022/05/18 05:24:53;;;;;;;6.40;1.73;;;21.10;99.90;;;;;;4198272;28;20293;-94
2022/05/18 05:26:54;;;;;;;7.32;2.30;;;21.10;99.90;;;;;;4165158;28;20227;-95
2022/05/18 05:28:55;;;;;;;7.00;2.30;;;21.10;99.90;;;;;;4182010;28;20273;-96
2022/05/18 05:31:02;;;;;;;8.63;2.60;;;21.20;99.90;;;;;;4181750;28;20627;-96
2022/05/18 05:33:03;;;;;;;6.18;2.08;;;21.20;99.90;;;;;;4182191;28;20175;-94
2022/05/18 05:35:06;;;;;;;4.22;2.20;;;21.10;99.90;;;;;;4165827;28;20187;-95
2022/05/18 05:37:07;;;;;;;6.35;2.45;;;21.10;99.90;;;;;;4182501;28;20353;-95
2022/05/18 05:39:08;;;;;;;5.43;2.60;;;20.90;99.90;;;;;;4191944;28;20179;-93
2022/05/18 05:41:08;;;;;;;5.65;2.25;;;20.90;99.90;;;;;;4171063;28;20183;-96
2022/05/18 05:43:11;;;;;;;6.13;2.35;;;20.80;99.90;;;;;;4182316;28;20242;-96
2022/05/18 05:45:12;;;;;;;6.30;2.67;;;21.00;99.90;;;;;;4181958;28;20247;-94
2022/05/18 05:47:13;;;;;;;9.93;2.75;;;21.00;99.90;;;;;;4165273;28;20199;-95
2022/05/18 05:49:13;;;;;;;8.98;2.60;;;21.00;99.90;;;;;;4181809;28;20535;-95
2022/05/18 05:51:16;;;;;;;3.78;2.40;;;21.00;99.90;;;;;;4165216;28;20231;-95
2022/05/18 05:53:16;;;;;;;4.90;2.42;;;21.10;99.90;;;;;;4165351;28;20180;-96
2022/05/18 05:55:17;;;;;;;6.47;2.58;;;21.20;99.90;;;;;;4181785;28;20210;-93
2022/05/18 05:57:18;;;;;;;8.30;2.20;;;21.30;99.90;;;;;;4164844;28;20656;-96
2022/05/18 05:59:21;;;;;;;8.73;2.70;;;21.10;99.90;;;;;;4181492;28;20179;-95
2022/05/18 06:01:22;;;;;;;3.33;2.25;;;21.10;99.90;;;;;;4181290;28;20213;-95
2022/05/18 06:03:23;;;;;;;7.90;3.00;;;21.30;99.90;;;;;;4181301;28;20622;-94
2022/05/18 06:05:24;;;;;;;5.47;2.50;;;21.40;99.90;;;;;;4181606;28;20191;-95
2022/05/18 06:07:24;;;;;;;15.35;2.97;;;21.40;99.90;;;;;;4181529;28;20764;-95
2022/05/18 06:09:25;;;;;;;4.70;2.15;;;21.40;99.90;;;;;;4181109;28;20244;-94
2022/05/18 06:11:27;;;;;;;11.45;2.42;;;21.20;99.90;;;;;;4180832;28;20528;-93
2022/05/18 06:13:29;;;;;;;6.78;2.28;;;21.40;99.90;;;;;;4181196;28;20182;-94
2022/05/18 06:15:29;;;;;;;8.98;2.45;;;21.50;99.90;;;;;;4181425;28;20550;-94
2022/05/18 06:17:30;;;;;;;7.07;1.70;;;21.50;99.90;;;;;;4181473;28;20251;-95
2022/05/18 06:19:33;;;;;;;7.72;2.50;;;21.50;99.90;;;;;;4181611;28;20194;-96
2022/05/18 06:21:34;;;;;;;4.95;2.35;;;21.30;99.90;;;;;;4164314;28;20184;-95
2022/05/18 06:23:36;;;;;;;8.40;2.08;;;21.40;99.90;;;;;;4180915;28;20176;-95
2022/05/18 06:25:37;;;;;;;8.13;2.35;;;21.30;99.90;;;;;;4180836;28;20190;-95
2022/05/18 06:27:41;;;;;;;5.63;2.00;;;21.20;99.90;;;;;;4180838;28;20191;-94
2022/05/18 06:29:41;;;;;;;3.88;1.65;;;21.30;99.90;;;;;;4180930;28;20646;-94
2022/05/18 06:31:42;;;;;;;5.57;2.15;;;21.50;99.90;;;;;;4164900;28;20204;-95
2022/05/18 06:33:43;;;;;;;5.75;2.13;;;21.80;99.90;;;;;;4180888;28;20175;-94
2022/05/18 06:35:46;;;;;;;5.63;1.98;;;22.00;99.90;;;;;;4180616;28;20195;-95
2022/05/18 06:37:48;;;;;;;3.30;1.77;;;22.00;99.90;;;;;;4180864;28;20198;-94
2022/05/18 06:39:49;;;;;;;4.68;1.98;;;21.80;99.90;;;;;;4188101;22;20271;-91
2022/05/18 06:41:50;;;;;;;3.45;1.77;;;21.80;99.90;;;;;;4181222;28;20179;-89
2022/05/18 06:43:56;;;;;;;4.18;1.73;;;22.20;99.90;;;;;;4164945;28;20214;-91
2022/05/18 06:45:58;;;;;;;3.60;1.60;;;22.20;99.90;;;;;;4181066;28;20580;-91
2022/05/18 06:47:59;;;;;;;6.75;1.90;;;22.40;99.90;;;;;;4164964;28;20238;-90
2022/05/18 06:49:59;;;;;;;6.50;1.98;;;22.40;99.90;;;;;;4181177;28;20183;-91
2022/05/18 06:52:00;;;;;;;5.90;1.75;;;22.70;99.90;;;;;;4164879;28;20168;-92
2022/05/18 06:54:01;;;;;;;6.03;1.75;;;22.90;99.90;;;;;;4181294;28;20225;-89
2022/05/18 06:56:02;;;;;;;4.13;1.48;;;23.00;99.90;;;;;;4164595;28;20192;-91
2022/05/18 06:58:03;;;;;;;3.80;1.58;;;23.00;99.90;;;;;;4164184;28;20733;-90
2022/05/18 07:00:05;;;;;;;6.97;1.65;;;23.00;99.90;;;;;;4164717;28;20543;-89
2022/05/18 07:02:07;;;;;;;4.40;1.60;;;23.20;99.90;;;;;;4181190;28;20164;-90
2022/05/18 07:04:10;;;;;;;3.22;1.58;;;23.20;99.90;;;;;;4164577;28;20254;-91
2022/05/18 07:06:12;;;;;;;3.92;1.58;;;23.40;99.90;;;;;;4164212;28;20188;-90
2022/05/18 07:08:13;;;;;;;5.05;1.50;;;23.60;99.90;;;;;;4181170;28;20270;-89
2022/05/18 07:10:14;;;;;;;5.32;1.63;;;23.60;99.90;;;;;;4164573;28;20208;-90
2022/05/18 07:12:14;;;;;;;5.75;1.75;;;23.90;99.90;;;;;;4164355;28;20172;-90
2022/05/18 07:14:18;;;;;;;4.20;1.45;;;24.70;99.90;;;;;;4180596;28;20171;-89
2022/05/18 07:16:20;;;;;;;4.68;1.88;;;25.50;99.90;;;;;;4164360;28;20191;-90
2022/05/18 07:18:20;;;;;;;2.13;1.50;;;25.90;99.90;;;;;;4181137;28;20631;-90
2022/05/18 07:20:21;;;;;;;3.38;1.80;;;26.90;99.90;;;;;;4180773;28;20187;-91
2022/05/18 07:22:22;;;;;;;10.00;1.70;;;27.20;99.90;;;;;;4180999;28;20713;-88
2022/05/18 07:24:24;;;;;;;3.60;1.48;;;27.80;99.90;;;;;;4164404;28;20239;-89
2022/05/18 07:26:27;;;;;;;5.95;1.55;;;27.50;99.90;;;;;;4164495;28;20200;-89
2022/05/18 07:28:27;;;;;;;4.18;1.55;;;27.50;99.90;;;;;;4164487;28;20173;-89
2022/05/18 07:30:28;;;;;;;3.05;1.50;;;28.00;99.90;;;;;;4164616;28;20172;-90
2022/05/18 07:32:29;;;;;;;5.47;1.52;;;27.60;99.90;;;;;;4164497;28;20255;-89
2022/05/18 07:34:30;;;;;;;2.63;1.40;;;27.30;99.90;;;;;;4164230;28;20218;-89
2022/05/18 07:36:30;;;;;;;3.47;1.95;;;28.00;99.90;;;;;;4164328;28;20184;-90
2022/05/18 07:38:32;;;;;;;3.30;1.35;;;28.10;99.90;;;;;;4164672;28;20251;-91
2022/05/18 07:40:34;;;;;;;2.75;1.30;;;28.80;99.90;;;;;;4193235;28;20284;-89
2022/05/18 07:42:35;;;;;;;4.60;1.13;;;29.50;99.90;;;;;;4181019;28;20191;-89
2022/05/18 07:44:37;;;;;;;6.65;1.67;;;29.40;99.90;;;;;;4180889;28;20266;-90
2022/05/18 07:46:38;;;;;;;4.28;1.30;;;29.90;99.90;;;;;;4180489;28;20254;-89
2022/05/18 07:48:39;;;;;;;6.13;1.63;;;30.30;99.90;;;;;;4180817;28;20321;-88
2022/05/18 07:50:41;;;;;;;2.65;1.40;;;31.00;99.90;;;;;;4180669;28;20180;-90
2022/05/18 07:52:41;;;;;;;5.57;1.45;;;30.50;99.90;;;;;;4180894;28;20179;-89
2022/05/18 07:54:44;;;;;;;3.75;1.25;;;30.00;99.90;;;;;;4180439;28;20179;-89
2022/05/18 07:56:45;;;;;;;2.70;1.13;;;30.20;99.90;;;;;;4180513;28;20184;-91
2022/05/18 07:58:45;;;;;;;4.00;0.93;;;30.40;99.90;;;;;;4180684;28;20179;-88
2022/05/18 08:00:46;;;;;;;11.05;1.40;;;30.90;99.90;;;;;;4197329;28;20601;-88
2022/05/18 08:02:47;;;;;;;2.55;0.80;;;30.60;99.90;;;;;;4180795;28;20180;-88
2022/05/18 08:04:48;;;;;;;3.42;0.90;;;30.00;99.90;;;;;;4197102;28;20240;-89
2022/05/18 08:06:48;;;;;;;3.05;1.15;;;29.70;99.90;;;;;;4197264;28;20187;-88
2022/05/18 08:08:49;;;;;;;2.95;0.90;;;30.40;99.90;;;;;;4180533;28;20183;-90
2022/05/18 08:15:29;;;;;;;1.15;0.57;;;29.80;99.90;;;;;;4200124;28;20656;-90
2022/05/18 08:17:30;;;;;;;1.30;0.45;;;30.40;99.90;;;;;;4200457;28;20183;-89
2022/05/18 08:19:30;;;;;;;2.72;0.50;;;30.80;99.90;;;;;;4183414;28;20172;-90
2022/05/18 08:21:31;;;;;;;2.70;0.68;;;31.60;99.90;;;;;;4200069;28;20175;-88
2022/05/18 08:23:32;;;;;;;2.15;0.60;;;32.20;99.90;;;;;;4183489;28;20199;-88
2022/05/18 08:25:33;;;;;;;1.33;0.60;;;31.00;99.90;;;;;;4183226;28;20210;-90
2022/05/18 08:27:34;;;;;;;2.03;0.60;;;30.70;99.90;;;;;;4199873;28;20281;-89
2022/05/18 08:29:36;;;;;;;4.78;0.80;;;31.20;99.90;;;;;;4183389;28;20178;-90
2022/05/18 08:31:36;;;;;;;6.03;1.02;;;32.00;99.90;;;;;;4183178;28;20201;-89
2022/05/18 08:33:37;;;;;;;1.00;0.50;;;31.80;99.90;;;;;;4183270;28;20171;-89
2022/05/18 08:35:40;;;;;;;2.92;0.50;;;31.80;99.90;;;;;;4199822;28;20175;-89
2022/05/18 08:37:46;;;;;;;2.88;0.93;;;31.70;99.90;;;;;;4199951;28;20174;-89
2022/05/18 08:39:46;;;;;;;4.97;0.93;;;32.00;99.90;;;;;;4183020;28;20187;-90
2022/05/18 08:41:49;;;;;;;1.50;0.63;;;32.70;99.90;;;;;;4199549;28;20212;-90
2022/05/18 08:43:54;;;;;;;2.25;0.40;;;32.50;99.90;;;;;;4182978;28;20199;-89
2022/05/18 08:46:10;;;;;;;2.80;0.70;;;31.40;99.90;;;;;;4199544;28;20684;-88
2022/05/18 08:48:32;;;;;;;1.27;0.50;;;32.10;99.90;;;;;;4199818;28;20190;-88
2022/05/18 08:50:34;;;;;;;2.63;0.50;;;30.90;99.90;;;;;;4199516;28;20179;-89
2022/05/18 08:53:32;;;;;;;2.00;0.40;;;30.60;99.90;;;;;;4199366;28;20174;-89
2022/05/18 08:56:02;;;;;;;2.58;0.70;;;31.50;99.90;;;;;;4169873;28;20202;-87
2022/05/18 08:58:11;;;;;;;2.22;0.63;;;30.90;99.90;;;;;;4199635;28;20671;-88
2022/05/18 09:00:25;;;;;;;1.55;0.60;;;30.30;99.90;;;;;;4199378;28;20170;-87
2022/05/18 09:02:34;;;;;;;4.95;0.50;;;29.90;99.90;;;;;;4199156;28;20635;-88
2022/05/18 09:05:04;;;;;;;0.70;0.40;;;29.30;99.90;;;;;;4182645;28;20207;-88
2022/05/18 09:07:09;;;;;;;1.98;0.52;;;29.50;99.90;;;;;;4199206;28;20229;-88
2022/05/18 09:11:36;;;;;;;3.15;0.77;;;31.00;99.90;;;;;;4199238;28;20248;-89
2022/05/18 09:13:38;;;;;;;9.30;0.70;;;30.20;99.90;;;;;;4198852;28;20178;-87
2022/05/18 09:15:51;;;;;;;1.92;0.50;;;30.70;99.90;;;;;;4200065;28;20297;-89
2022/05/18 09:18:01;;;;;;;2.25;0.43;;;29.90;99.90;;;;;;4199153;28;20175;-89
2022/05/18 09:20:03;;;;;;;2.83;0.50;;;29.90;99.90;;;;;;4198771;28;20174;-88
2022/05/18 09:22:23;;;;;;;2.75;0.60;;;30.60;99.90;;;;;;4182322;28;20265;-89
2022/05/18 09:25:07;;;;;;;1.10;0.50;;;30.60;99.90;;;;;;4198819;28;20253;-87
2022/05/18 09:27:21;;;;;;;8.45;0.88;;;30.80;99.90;;;;;;4144786;28;20268;-89
2022/05/18 09:29:46;;;;;;;1.65;0.68;;;31.30;99.90;;;;;;4199005;28;20228;-89
2022/05/18 09:31:58;;;;;;;2.63;0.80;;;31.50;99.90;;;;;;4182254;28;20203;-88
2022/05/18 09:34:17;;;;;;;2.50;0.70;;;30.80;99.90;;;;;;4182559;28;20179;-89
2022/05/18 09:36:49;;;;;;;3.85;0.90;;;30.00;99.90;;;;;;4198801;28;20562;-89
2022/05/18 09:38:50;;;;;;;1.42;0.65;;;29.40;99.90;;;;;;4198926;28;20275;-88
2022/05/18 09:40:51;;;;;;;2.83;0.75;;;28.60;99.90;;;;;;4198785;28;20206;-88
2022/05/18 09:42:58;;;;;;;1.98;0.75;;;29.00;99.90;;;;;;4182321;28;20186;-89
2022/05/18 09:45:09;;;;;;;2.47;0.88;;;29.30;99.90;;;;;;4182064;28;20223;-89
2022/05/18 09:47:15;;;;;;;6.63;0.77;;;29.60;99.90;;;;;;4178874;28;20199;-89
2022/05/18 09:49:23;;;;;;;1.02;0.70;;;30.90;99.90;;;;;;4182039;28;20172;-89
2022/05/18 09:51:25;;;;;;;3.70;0.63;;;31.50;99.90;;;;;;4198581;28;20178;-89
2022/05/18 09:53:26;;;;;;;3.42;0.80;;;31.80;99.90;;;;;;4181709;28;20240;-88
2022/05/18 09:55:27;;;;;;;3.15;0.85;;;32.20;99.90;;;;;;4181648;28;20240;-88
2022/05/18 09:57:38;;;;;;;2.13;0.77;;;31.80;99.90;;;;;;4181787;28;20179;-89
2022/05/18 09:59:43;;;;;;;3.97;1.10;;;31.70;99.90;;;;;;4181885;28;20256;-89
2022/05/18 10:09:13;;;;;;;4.25;1.00;;;33.80;99.90;;;;;;4132078;28;20208;-87
2022/05/18 10:11:18;;;;;;;1.52;0.77;;;32.60;99.90;;;;;;4169543;28;20194;-88
2022/05/18 10:13:24;;;;;;;2.53;1.20;;;31.40;99.90;;;;;;4181574;28;20705;-88
2022/05/18 10:15:25;;;;;;;2.35;0.98;;;31.10;99.90;;;;;;4198089;28;20254;-87
2022/05/18 10:17:35;;;;;;;1.38;0.82;;;31.00;99.90;;;;;;4198055;28;20296;-89
2022/05/18 10:19:52;;;;;;;3.58;1.10;;;30.30;99.90;;;;;;4181737;28;20242;-88
2022/05/18 10:21:58;;;;;;;1.67;0.95;;;29.70;99.90;;;;;;4198440;28;20166;-89
2022/05/18 10:24:06;;;;;;;4.85;0.77;;;29.40;99.90;;;;;;4181657;28;20218;-89
2022/05/18 10:26:23;;;;;;;2.05;1.00;;;29.50;99.90;;;;;;4197904;28;20657;-88
2022/05/18 10:28:28;;;;;;;5.00;1.10;;;29.80;99.90;;;;;;4181661;28;20182;-88
2022/05/18 10:30:34;;;;;;;1.92;0.90;;;29.30;99.90;;;;;;4181095;28;20211;-88
2022/05/18 10:32:55;;;;;;;2.20;0.90;;;28.70;99.90;;;;;;4197542;28;20177;-88
2022/05/18 10:34:56;;;;;;;3.15;1.00;;;28.60;99.90;;;;;;4198004;28;20206;-90
2022/05/18 10:37:00;;;;;;;3.47;1.10;;;28.00;99.90;;;;;;4197931;28;20186;-89
2022/05/18 10:39:01;;;;;;;4.25;0.98;;;27.90;99.90;;;;;;4181386;28;20183;-89
2022/05/18 10:41:02;;;;;;;1.98;0.88;;;27.90;99.90;;;;;;4181242;28;20183;-90
2022/05/18 10:43:39;;;;;;;3.58;1.10;;;28.00;99.90;;;;;;4181311;28;20217;-88
2022/05/18 10:45:40;;;;;;;3.25;1.00;;;28.60;99.90;;;;;;4115470;28;20196;-88
2022/05/18 10:47:48;;;;;;;6.05;1.75;;;28.80;99.90;;;;;;4162009;28;20666;-90
2022/05/18 10:49:49;;;;;;;4.72;0.98;;;28.40;99.90;;;;;;4181535;28;20206;-89
2022/05/18 10:51:50;;;;;;;2.70;1.00;;;28.50;99.90;;;;;;4181288;28;20218;-88
2022/05/18 10:53:51;;;;;;;3.60;1.13;;;28.70;99.90;;;;;;4181109;28;20222;-89
2022/05/18 10:55:57;;;;;;;2.40;1.00;;;29.00;99.90;;;;;;4180926;28;20170;-87
2022/05/18 10:58:21;;;;;;;3.45;1.20;;;28.80;99.90;;;;;;4198788;28;20179;-88
2022/05/18 11:00:27;;;;;;;5.68;0.75;;;28.30;99.90;;;;;;4198059;28;20170;-89
2022/05/18 11:02:30;;;;;;;1.58;0.70;;;27.70;99.90;;;;;;4181305;28;20646;-89
2022/05/18 11:04:40;;;;;;;2.30;0.80;;;27.60;99.90;;;;;;4197881;28;20245;-89